createdAt,value
2023-03-29T00:00:12.735Z,91.78
2023-03-29T00:01:12.600Z,91.47
2023-03-29T00:02:12.697Z,91.78
2023-03-29T00:03:12.722Z,92.82
2023-03-29T00:04:12.682Z,92.10
2023-03-29T00:05:12.563Z,92.10
2023-03-29T00:06:12.554Z,91.99
2023-03-29T00:07:12.553Z,91.89
2023-03-29T00:08:12.680Z,91.58
2023-03-29T00:09:12.558Z,91.58
2023-03-29T00:10:12.974Z,91.68
2023-03-29T00:11:12.642Z,91.68
2023-03-29T00:12:12.863Z,92.72
2023-03-29T00:13:12.624Z,92.51
2023-03-29T00:14:12.633Z,92.20
2023-03-29T00:15:12.798Z,92.10
2023-03-29T00:16:12.585Z,92.93
2023-03-29T00:17:12.781Z,92.93
2023-03-29T00:18:12.786Z,93.23
2023-03-29T00:19:13.058Z,93.23
2023-03-29T00:20:12.673Z,93.02
2023-03-29T00:21:12.424Z,92.20
2023-03-29T00:22:12.421Z,92.82
2023-03-29T00:23:12.408Z,92.61
2023-03-29T00:24:12.414Z,92.82
2023-03-29T00:25:12.402Z,93.54
2023-03-29T00:26:12.361Z,93.02
2023-03-29T00:27:12.332Z,92.51
2023-03-29T00:28:12.335Z,92.93
2023-03-29T00:29:12.325Z,92.82
2023-03-29T00:30:12.317Z,93.33
2023-03-29T00:31:12.589Z,93.96
2023-03-29T00:32:12.306Z,93.65
2023-03-29T00:33:12.290Z,93.33
2023-03-29T00:34:12.267Z,93.23
2023-03-29T00:35:12.255Z,93.33
2023-03-29T00:36:12.250Z,93.23
2023-03-29T00:37:12.245Z,93.02
2023-03-29T00:38:12.241Z,93.13
2023-03-29T00:39:12.210Z,93.44
2023-03-29T00:40:12.212Z,93.54
2023-03-29T00:41:12.198Z,93.85
2023-03-29T00:42:12.183Z,93.85
2023-03-29T00:43:12.208Z,94.06
2023-03-29T00:44:12.165Z,93.75
2023-03-29T00:45:12.169Z,94.27
2023-03-29T00:46:12.194Z,94.58
2023-03-29T00:47:12.141Z,95.04
2023-03-29T00:48:12.236Z,95.41
2023-03-29T00:49:12.129Z,95.36
2023-03-29T00:50:12.117Z,95.04
2023-03-29T00:51:12.225Z,94.94
2023-03-29T00:52:12.088Z,95.36
2023-03-29T00:53:12.074Z,95.87
2023-03-29T00:54:12.068Z,95.87
2023-03-29T00:55:12.246Z,95.46
2023-03-29T00:56:12.065Z,95.67
2023-03-29T00:57:12.058Z,95.46
2023-03-29T00:58:12.033Z,95.36
2023-03-29T00:59:12.010Z,96.08
2023-03-29T01:00:12.017Z,96.50
2023-03-29T01:01:12.018Z,96.91
2023-03-29T01:02:12.036Z,96.91
2023-03-29T01:03:12.091Z,96.60
2023-03-29T01:04:11.960Z,96.60
2023-03-29T01:05:11.956Z,96.39
2023-03-29T01:06:11.982Z,96.60
2023-03-29T01:07:12.457Z,96.70
2023-03-29T01:08:12.083Z,96.08
2023-03-29T01:09:11.911Z,96.29
2023-03-29T01:10:11.928Z,96.39
2023-03-29T01:11:11.911Z,96.60
2023-03-29T01:12:11.984Z,96.29
2023-03-29T01:13:11.873Z,96.39
2023-03-29T01:14:11.871Z,96.29
2023-03-29T01:15:11.871Z,96.29
2023-03-29T01:16:11.925Z,96.81
2023-03-29T01:17:11.845Z,97.02
2023-03-29T01:18:11.844Z,96.91
2023-03-29T01:19:11.808Z,96.70
2023-03-29T01:20:11.976Z,97.22
2023-03-29T01:21:11.798Z,97.33
2023-03-29T01:22:11.782Z,97.22
2023-03-29T01:23:11.778Z,97.02
2023-03-29T01:24:11.776Z,97.12
2023-03-29T01:25:11.764Z,97.33
2023-03-29T01:26:11.759Z,97.33
2023-03-29T01:27:11.732Z,97.33
2023-03-29T01:28:11.735Z,97.64
2023-03-29T01:29:11.723Z,97.64
2023-03-29T01:30:11.700Z,97.43
2023-03-29T01:31:11.709Z,97.74
2023-03-29T01:32:11.726Z,97.95
2023-03-29T01:33:11.673Z,97.53
2023-03-29T01:34:11.666Z,97.53
2023-03-29T01:35:11.658Z,97.58
2023-03-29T01:36:11.806Z,97.43
2023-03-29T01:37:11.660Z,97.53
2023-03-29T01:38:11.655Z,97.53
2023-03-29T01:39:11.618Z,97.22
2023-03-29T01:40:11.627Z,96.60
2023-03-29T01:41:11.600Z,97.06
2023-03-29T01:42:11.598Z,97.16
2023-03-29T01:43:11.565Z,97.27
2023-03-29T01:44:12.194Z,97.37
2023-03-29T01:45:11.575Z,97.27
2023-03-29T01:46:11.623Z,97.16
2023-03-29T01:47:11.529Z,96.54
2023-03-29T01:48:11.568Z,96.64
2023-03-29T01:49:11.513Z,96.75
2023-03-29T01:50:11.506Z,97.16
2023-03-29T01:51:11.500Z,97.16
2023-03-29T01:52:11.511Z,97.27
2023-03-29T01:53:11.473Z,97.27
2023-03-29T01:54:11.464Z,97.06
2023-03-29T01:55:11.492Z,96.95
2023-03-29T01:56:11.458Z,97.43
2023-03-29T01:57:11.487Z,97.47
2023-03-29T01:58:11.420Z,97.33
2023-03-29T01:59:11.440Z,97.22
2023-03-29T02:00:11.423Z,97.43
2023-03-29T02:01:11.462Z,97.12
2023-03-29T02:02:11.478Z,96.95
2023-03-29T02:03:11.511Z,96.60
2023-03-29T02:04:11.375Z,96.70
2023-03-29T02:05:11.441Z,96.39
2023-03-29T02:06:11.348Z,96.39
2023-03-29T02:07:11.325Z,96.50
2023-03-29T02:08:11.317Z,96.81
2023-03-29T02:09:11.321Z,97.02
2023-03-29T02:10:11.315Z,96.70
2023-03-29T02:11:11.284Z,97.33
2023-03-29T02:12:11.299Z,96.91
2023-03-29T02:13:11.302Z,97.02
2023-03-29T02:14:11.261Z,97.22
2023-03-29T02:15:11.241Z,97.22
2023-03-29T02:16:11.279Z,97.43
2023-03-29T02:17:11.279Z,97.33
2023-03-29T02:18:11.311Z,97.53
2023-03-29T02:19:11.201Z,97.74
2023-03-29T02:20:11.213Z,97.12
2023-03-29T02:21:11.190Z,97.02
2023-03-29T02:22:11.186Z,97.53
2023-03-29T02:23:11.172Z,97.12
2023-03-29T02:24:11.285Z,96.81
2023-03-29T02:25:11.146Z,97.43
2023-03-29T02:26:11.136Z,96.70
2023-03-29T02:27:11.124Z,97.85
2023-03-29T02:28:11.109Z,97.64
2023-03-29T02:29:11.132Z,96.91
2023-03-29T02:30:11.137Z,96.70
2023-03-29T02:31:11.097Z,97.12
2023-03-29T02:32:11.072Z,97.43
2023-03-29T02:33:11.133Z,97.43
2023-03-29T02:34:11.075Z,97.02
2023-03-29T02:35:11.052Z,96.60
2023-03-29T02:36:11.060Z,96.60
2023-03-29T02:37:11.022Z,96.70
2023-03-29T02:38:11.013Z,96.29
2023-03-29T02:39:11.000Z,96.60
2023-03-29T02:40:11.039Z,97.02
2023-03-29T02:41:11.003Z,97.02
2023-03-29T02:42:10.989Z,96.81
2023-03-29T02:43:10.971Z,96.39
2023-03-29T02:44:10.949Z,96.29
2023-03-29T02:45:10.957Z,96.91
2023-03-29T02:46:11.022Z,97.33
2023-03-29T02:47:10.925Z,96.50
2023-03-29T02:48:10.920Z,96.29
2023-03-29T02:49:10.915Z,96.81
2023-03-29T02:50:10.897Z,96.39
2023-03-29T02:51:10.898Z,96.91
2023-03-29T02:52:10.901Z,97.53
2023-03-29T02:53:10.874Z,96.39
2023-03-29T02:54:10.867Z,95.77
2023-03-29T02:55:10.839Z,95.87
2023-03-29T02:56:10.828Z,95.98
2023-03-29T02:57:10.899Z,96.19
2023-03-29T02:58:10.816Z,96.19
2023-03-29T02:59:10.811Z,96.70
2023-03-29T03:00:10.789Z,95.87
2023-03-29T03:01:10.780Z,96.50
2023-03-29T03:02:10.885Z,96.39
2023-03-29T03:03:10.909Z,96.19
2023-03-29T03:04:10.828Z,96.50
2023-03-29T03:05:10.743Z,96.50
2023-03-29T03:06:10.751Z,96.50
2023-03-29T03:07:10.738Z,96.39
2023-03-29T03:08:10.723Z,96.39
2023-03-29T03:09:10.719Z,96.29
2023-03-29T03:10:10.689Z,97.33
2023-03-29T03:11:10.684Z,96.81
2023-03-29T03:12:10.672Z,96.08
2023-03-29T03:13:10.668Z,96.50
2023-03-29T03:14:10.662Z,96.81
2023-03-29T03:15:10.665Z,96.19
2023-03-29T03:16:10.661Z,95.98
2023-03-29T03:17:10.632Z,96.08
2023-03-29T03:18:10.776Z,95.98
2023-03-29T03:19:10.595Z,95.98
2023-03-29T03:20:10.610Z,95.04
2023-03-29T03:21:10.573Z,96.08
2023-03-29T03:22:10.580Z,95.98
2023-03-29T03:23:10.559Z,96.19
2023-03-29T03:24:10.551Z,95.56
2023-03-29T03:25:10.529Z,96.08
2023-03-29T03:26:10.542Z,95.56
2023-03-29T03:27:10.539Z,95.67
2023-03-29T03:28:10.515Z,95.77
2023-03-29T03:29:10.492Z,96.08
2023-03-29T03:30:10.506Z,95.56
2023-03-29T03:31:10.495Z,95.46
2023-03-29T03:32:10.529Z,95.77
2023-03-29T03:33:10.472Z,95.46
2023-03-29T03:34:10.444Z,95.98
2023-03-29T03:35:10.428Z,95.56
2023-03-29T03:36:10.478Z,96.50
2023-03-29T03:37:10.422Z,96.70
2023-03-29T03:38:10.426Z,95.87
2023-03-29T03:39:10.401Z,95.98
2023-03-29T03:40:10.380Z,95.67
2023-03-29T03:41:10.372Z,95.36
2023-03-29T03:42:10.396Z,95.15
2023-03-29T03:43:10.355Z,94.53
2023-03-29T03:44:10.353Z,94.42
2023-03-29T03:45:10.353Z,95.04
2023-03-29T03:46:10.397Z,95.25
2023-03-29T03:47:10.313Z,94.94
2023-03-29T03:48:10.369Z,95.87
2023-03-29T03:49:10.297Z,95.36
2023-03-29T03:50:10.278Z,95.46
2023-03-29T03:51:10.291Z,95.56
2023-03-29T03:52:10.263Z,95.36
2023-03-29T03:53:10.253Z,95.15
2023-03-29T03:54:10.240Z,94.21
2023-03-29T03:55:10.228Z,95.04
2023-03-29T03:56:10.242Z,95.04
2023-03-29T03:57:10.257Z,95.77
2023-03-29T03:58:10.220Z,95.25
2023-03-29T03:59:10.180Z,95.15
2023-03-29T04:00:10.176Z,95.56
2023-03-29T04:01:10.173Z,95.25
2023-03-29T04:02:10.203Z,95.67
2023-03-29T04:03:10.280Z,95.77
2023-03-29T04:04:10.182Z,95.36
2023-03-29T04:05:10.137Z,95.87
2023-03-29T04:06:10.118Z,95.67
2023-03-29T04:07:10.126Z,95.67
2023-03-29T04:08:10.105Z,95.77
2023-03-29T04:09:10.091Z,95.87
2023-03-29T04:10:10.076Z,96.19
2023-03-29T04:11:10.085Z,95.93
2023-03-29T04:12:10.062Z,96.45
2023-03-29T04:13:10.065Z,96.29
2023-03-29T04:14:10.035Z,96.08
2023-03-29T04:15:10.026Z,95.98
2023-03-29T04:16:10.143Z,95.98
2023-03-29T04:17:10.010Z,95.04
2023-03-29T04:18:10.056Z,94.89
2023-03-29T04:19:09.977Z,95.56
2023-03-29T04:20:09.974Z,95.31
2023-03-29T04:21:09.978Z,95.41
2023-03-29T04:22:09.955Z,95.20
2023-03-29T04:23:09.945Z,95.10
2023-03-29T04:24:09.950Z,95.00
2023-03-29T04:25:09.925Z,95.00
2023-03-29T04:26:09.910Z,95.00
2023-03-29T04:27:09.920Z,95.51
2023-03-29T04:28:09.894Z,95.20
2023-03-29T04:29:10.741Z,95.10
2023-03-29T04:30:09.905Z,95.41
2023-03-29T04:31:09.900Z,95.20
2023-03-29T04:32:09.876Z,95.31
2023-03-29T04:33:09.934Z,95.93
2023-03-29T04:34:09.830Z,95.51
2023-03-29T04:35:09.840Z,94.89
2023-03-29T04:36:09.840Z,95.31
2023-03-29T04:37:09.806Z,95.41
2023-03-29T04:38:09.814Z,94.79
2023-03-29T04:39:09.870Z,94.68
2023-03-29T04:40:09.829Z,95.31
2023-03-29T04:41:09.770Z,95.51
2023-03-29T04:42:09.753Z,95.00
2023-03-29T04:43:09.780Z,94.48
2023-03-29T04:44:09.736Z,94.17
2023-03-29T04:45:09.805Z,94.48
2023-03-29T04:46:09.774Z,94.27
2023-03-29T04:47:09.707Z,94.17
2023-03-29T04:48:09.760Z,93.65
2023-03-29T04:49:09.667Z,94.58
2023-03-29T04:50:09.666Z,94.68
2023-03-29T04:51:09.614Z,94.89
2023-03-29T04:52:09.663Z,95.00
2023-03-29T04:53:09.622Z,95.31
2023-03-29T04:54:09.608Z,94.48
2023-03-29T04:55:09.589Z,93.96
2023-03-29T04:56:09.646Z,94.48
2023-03-29T04:57:09.681Z,94.58
2023-03-29T04:58:09.545Z,95.20
2023-03-29T04:59:09.531Z,95.31
2023-03-29T05:00:09.538Z,94.68
2023-03-29T05:01:09.541Z,94.68
2023-03-29T05:02:09.523Z,94.68
2023-03-29T05:03:09.572Z,94.17
2023-03-29T05:04:11.348Z,94.48
2023-03-29T05:05:09.471Z,95.00
2023-03-29T05:06:09.472Z,94.68
2023-03-29T05:07:09.475Z,94.79
2023-03-29T05:08:09.464Z,94.68
2023-03-29T05:09:09.436Z,94.79
2023-03-29T05:10:09.425Z,95.62
2023-03-29T05:11:09.413Z,95.41
2023-03-29T05:12:09.450Z,95.51
2023-03-29T05:13:09.391Z,95.10
2023-03-29T05:14:09.437Z,95.20
2023-03-29T05:15:09.385Z,95.31
2023-03-29T05:16:09.414Z,95.10
2023-03-29T05:17:09.357Z,94.06
2023-03-29T05:18:09.470Z,93.96
2023-03-29T05:19:09.362Z,93.54
2023-03-29T05:20:09.342Z,93.54
2023-03-29T05:21:09.332Z,93.65
2023-03-29T05:22:09.292Z,93.85
2023-03-29T05:23:09.293Z,94.06
2023-03-29T05:24:09.287Z,95.10
2023-03-29T05:25:09.288Z,94.48
2023-03-29T05:26:09.270Z,94.58
2023-03-29T05:27:09.270Z,93.85
2023-03-29T05:28:09.244Z,93.91
2023-03-29T05:29:09.240Z,93.85
2023-03-29T05:30:09.266Z,93.40
2023-03-29T05:31:09.257Z,93.81
2023-03-29T05:32:09.293Z,93.91
2023-03-29T05:33:10.253Z,94.43
2023-03-29T05:34:09.459Z,94.54
2023-03-29T05:35:09.272Z,93.50
2023-03-29T05:36:09.342Z,93.29
2023-03-29T05:37:09.167Z,93.71
2023-03-29T05:38:09.187Z,94.85
2023-03-29T05:39:09.140Z,94.95
2023-03-29T05:40:09.186Z,94.23
2023-03-29T05:41:09.126Z,94.54
2023-03-29T05:42:09.117Z,94.85
2023-03-29T05:43:09.118Z,95.26
2023-03-29T05:44:09.083Z,94.74
2023-03-29T05:45:09.100Z,94.95
2023-03-29T05:46:09.130Z,95.89
2023-03-29T05:47:09.058Z,95.26
2023-03-29T05:48:09.076Z,94.85
2023-03-29T05:49:09.061Z,94.54
2023-03-29T05:50:09.013Z,94.95
2023-03-29T05:51:08.998Z,95.06
2023-03-29T05:52:09.002Z,95.37
2023-03-29T05:53:08.993Z,94.85
2023-03-29T05:54:08.970Z,94.23
2023-03-29T05:55:08.985Z,94.85
2023-03-29T05:56:08.954Z,94.33
2023-03-29T05:57:08.989Z,94.85
2023-03-29T05:58:08.943Z,94.33
2023-03-29T05:59:08.918Z,94.23
2023-03-29T06:00:09.131Z,94.12
2023-03-29T06:01:08.900Z,93.40
2023-03-29T06:02:08.929Z,94.02
2023-03-29T06:03:19.978Z,94.02
2023-03-29T06:04:09.023Z,93.04
2023-03-29T06:05:08.879Z,93.50
2023-03-29T06:06:08.877Z,92.94
2023-03-29T06:07:08.850Z,92.84
2023-03-29T06:08:08.838Z,93.66
2023-03-29T06:09:08.824Z,94.08
2023-03-29T06:10:08.811Z,93.56
2023-03-29T06:11:09.200Z,93.35
2023-03-29T06:12:08.805Z,93.04
2023-03-29T06:13:08.818Z,93.77
2023-03-29T06:14:08.792Z,93.35
2023-03-29T06:15:08.794Z,93.56
2023-03-29T06:16:08.796Z,93.56
2023-03-29T06:17:08.849Z,93.77
2023-03-29T06:18:08.767Z,93.87
2023-03-29T06:19:08.731Z,93.04
2023-03-29T06:20:08.745Z,93.25
2023-03-29T06:21:08.706Z,93.87
2023-03-29T06:22:08.701Z,92.94
2023-03-29T06:23:08.722Z,93.46
2023-03-29T06:24:08.700Z,93.56
2023-03-29T06:25:08.693Z,93.77
2023-03-29T06:26:08.671Z,93.98
2023-03-29T06:27:08.647Z,93.46
2023-03-29T06:28:08.644Z,93.35
2023-03-29T06:29:08.683Z,93.77
2023-03-29T06:30:08.621Z,93.04
2023-03-29T06:31:08.626Z,93.87
2023-03-29T06:32:08.605Z,93.66
2023-03-29T06:33:08.631Z,93.35
2023-03-29T06:34:08.578Z,93.87
2023-03-29T06:35:08.597Z,93.66
2023-03-29T06:36:08.610Z,92.84
2023-03-29T06:37:08.554Z,93.35
2023-03-29T06:38:08.555Z,93.46
2023-03-29T06:39:08.540Z,92.32
2023-03-29T06:40:08.525Z,92.28
2023-03-29T06:41:08.543Z,93.31
2023-03-29T06:42:19.986Z,92.90
2023-03-29T06:43:08.496Z,93.52
2023-03-29T06:44:08.483Z,93.21
2023-03-29T06:45:08.501Z,92.90
2023-03-29T06:46:08.486Z,93.00
2023-03-29T06:47:08.453Z,93.62
2023-03-29T06:48:08.488Z,93.41
2023-03-29T06:49:08.431Z,93.73
2023-03-29T06:50:08.443Z,93.41
2023-03-29T06:51:08.714Z,92.80
2023-03-29T06:52:08.409Z,93.31
2023-03-29T06:53:08.422Z,93.83
2023-03-29T06:54:08.380Z,93.21
2023-03-29T06:55:08.384Z,94.04
2023-03-29T06:56:08.361Z,93.41
2023-03-29T06:57:08.412Z,94.14
2023-03-29T06:58:08.343Z,93.62
2023-03-29T06:59:08.335Z,93.93
2023-03-29T07:00:08.338Z,93.37
2023-03-29T07:01:08.317Z,93.48
2023-03-29T07:02:08.367Z,93.68
2023-03-29T07:03:08.367Z,91.93
2023-03-29T07:04:08.383Z,92.34
2023-03-29T07:05:08.270Z,92.55
2023-03-29T07:06:08.263Z,93.68
2023-03-29T07:07:08.258Z,93.79
2023-03-29T07:08:08.269Z,93.99
2023-03-29T07:09:08.235Z,93.79
2023-03-29T07:10:08.234Z,93.68
2023-03-29T07:11:08.226Z,94.31
2023-03-29T07:12:08.197Z,94.31
2023-03-29T07:13:08.192Z,93.68
2023-03-29T07:14:08.206Z,94.20
2023-03-29T07:15:08.210Z,94.10
2023-03-29T07:16:08.221Z,94.82
2023-03-29T07:17:08.156Z,95.03
2023-03-29T07:18:08.169Z,95.44
2023-03-29T07:19:08.154Z,94.82
2023-03-29T07:20:08.125Z,95.03
2023-03-29T07:21:08.118Z,95.54
2023-03-29T07:22:08.125Z,95.03
2023-03-29T07:23:08.122Z,95.34
2023-03-29T07:24:08.094Z,95.44
2023-03-29T07:25:08.124Z,95.96
2023-03-29T07:26:08.081Z,96.17
2023-03-29T07:27:08.056Z,95.54
2023-03-29T07:28:08.061Z,96.17
2023-03-29T07:29:08.080Z,95.75
2023-03-29T07:30:08.034Z,96.17
2023-03-29T07:31:08.024Z,95.75
2023-03-29T07:32:08.017Z,95.86
2023-03-29T07:33:08.109Z,95.75
2023-03-29T07:34:07.989Z,95.65
2023-03-29T07:35:08.009Z,95.50
2023-03-29T07:36:08.018Z,95.71
2023-03-29T07:37:07.971Z,95.29
2023-03-29T07:38:07.960Z,95.61
2023-03-29T07:39:07.941Z,96.02
2023-03-29T07:40:07.988Z,95.61
2023-03-29T07:41:08.005Z,95.81
2023-03-29T07:42:07.912Z,95.50
2023-03-29T07:43:07.901Z,96.02
2023-03-29T07:44:07.901Z,96.02
2023-03-29T07:45:07.919Z,96.02
2023-03-29T07:46:08.003Z,96.12
2023-03-29T07:47:07.863Z,96.23
2023-03-29T07:48:07.909Z,96.23
2023-03-29T07:49:07.850Z,96.02
2023-03-29T07:50:07.830Z,96.33
2023-03-29T07:51:07.911Z,96.44
2023-03-29T07:52:07.809Z,96.12
2023-03-29T07:53:07.810Z,96.33
2023-03-29T07:54:07.811Z,96.54
2023-03-29T07:55:07.820Z,96.54
2023-03-29T07:56:07.770Z,96.44
2023-03-29T07:57:07.824Z,96.64
2023-03-29T07:58:07.754Z,97.06
2023-03-29T07:59:07.767Z,96.85
2023-03-29T08:00:07.746Z,96.85
2023-03-29T08:01:07.869Z,97.16
2023-03-29T08:02:07.713Z,97.36
2023-03-29T08:03:07.862Z,97.16
2023-03-29T08:04:07.845Z,97.26
2023-03-29T08:05:07.802Z,97.16
2023-03-29T08:06:07.683Z,97.32
2023-03-29T08:07:07.704Z,97.47
2023-03-29T08:08:07.665Z,97.42
2023-03-29T08:09:07.650Z,97.53
2023-03-29T08:10:07.661Z,97.84
2023-03-29T08:11:07.626Z,97.53
2023-03-29T08:12:07.626Z,97.22
2023-03-29T08:13:07.631Z,96.91
2023-03-29T08:14:07.602Z,97.11
2023-03-29T08:15:07.622Z,96.91
2023-03-29T08:16:07.592Z,96.59
2023-03-29T08:17:07.688Z,97.01
2023-03-29T08:18:07.852Z,97.01
2023-03-29T08:19:07.580Z,97.11
2023-03-29T08:20:07.543Z,97.11
2023-03-29T08:21:07.549Z,97.32
2023-03-29T08:22:07.537Z,97.42
2023-03-29T08:23:07.523Z,97.32
2023-03-29T08:24:07.534Z,97.42
2023-03-29T08:25:07.500Z,97.11
2023-03-29T08:26:07.487Z,96.91
2023-03-29T08:27:08.132Z,96.80
2023-03-29T08:28:07.462Z,97.32
2023-03-29T08:29:07.473Z,97.01
2023-03-29T08:30:07.499Z,96.91
2023-03-29T08:31:07.530Z,96.91
2023-03-29T08:32:07.427Z,97.42
2023-03-29T08:33:07.473Z,97.22
2023-03-29T08:34:07.413Z,97.11
2023-03-29T08:35:07.422Z,97.53
2023-03-29T08:36:07.424Z,97.63
2023-03-29T08:37:07.398Z,97.84
2023-03-29T08:38:07.372Z,97.53
2023-03-29T08:39:07.373Z,97.11
2023-03-29T08:40:07.368Z,96.80
2023-03-29T08:41:07.356Z,96.80
2023-03-29T08:42:07.348Z,96.76
2023-03-29T08:43:07.343Z,97.01
2023-03-29T08:44:07.340Z,96.97
2023-03-29T08:45:07.304Z,97.17
2023-03-29T08:46:07.348Z,97.28
2023-03-29T08:47:07.320Z,96.86
2023-03-29T08:48:07.323Z,96.66
2023-03-29T08:49:07.380Z,96.34
2023-03-29T08:50:07.271Z,96.45
2023-03-29T08:51:09.806Z,96.76
2023-03-29T08:52:07.239Z,97.07
2023-03-29T08:53:07.227Z,96.55
2023-03-29T08:54:07.226Z,97.17
2023-03-29T08:55:07.225Z,96.97
2023-03-29T08:56:07.219Z,96.86
2023-03-29T08:57:07.230Z,96.97
2023-03-29T08:58:07.175Z,97.28
2023-03-29T08:59:07.171Z,97.38
2023-03-29T09:00:07.161Z,97.38
2023-03-29T09:01:07.168Z,97.28
2023-03-29T09:02:07.219Z,97.17
2023-03-29T09:03:07.228Z,97.28
2023-03-29T09:04:07.154Z,97.28
2023-03-29T09:05:07.122Z,97.59
2023-03-29T09:06:07.106Z,97.38
2023-03-29T09:07:07.096Z,97.49
2023-03-29T09:08:07.107Z,97.69
2023-03-29T09:09:07.078Z,97.79
2023-03-29T09:10:07.072Z,97.69
2023-03-29T09:11:07.053Z,97.13
2023-03-29T09:12:07.039Z,97.02
2023-03-29T09:13:07.072Z,97.13
2023-03-29T09:14:07.068Z,96.72
2023-03-29T09:15:07.007Z,96.20
2023-03-29T09:16:07.055Z,96.20
2023-03-29T09:17:06.998Z,96.05
2023-03-29T09:18:07.038Z,96.15
2023-03-29T09:19:06.979Z,96.47
2023-03-29T09:20:06.967Z,95.84
2023-03-29T09:21:06.959Z,95.84
2023-03-29T09:22:06.989Z,96.05
2023-03-29T09:23:06.971Z,95.64
2023-03-29T09:24:06.980Z,94.60
2023-03-29T09:25:06.926Z,95.53
2023-03-29T09:26:06.917Z,95.28
2023-03-29T09:27:06.905Z,95.39
2023-03-29T09:28:06.900Z,95.28
2023-03-29T09:29:09.443Z,95.28
2023-03-29T09:30:06.865Z,94.67
2023-03-29T09:31:06.900Z,94.97
2023-03-29T09:32:06.890Z,94.25
2023-03-29T09:33:06.936Z,94.87
2023-03-29T09:34:06.841Z,94.46
2023-03-29T09:35:06.813Z,94.87
2023-03-29T09:36:06.876Z,94.77
2023-03-29T09:37:06.818Z,94.72
2023-03-29T09:38:06.780Z,95.34
2023-03-29T09:39:06.779Z,95.24
2023-03-29T09:40:06.776Z,95.76
2023-03-29T09:41:06.784Z,94.82
2023-03-29T09:42:06.744Z,94.93
2023-03-29T09:43:06.753Z,95.14
2023-03-29T09:44:07.310Z,94.72
2023-03-29T09:45:06.733Z,94.52
2023-03-29T09:46:06.802Z,94.37
2023-03-29T09:47:06.724Z,94.37
2023-03-29T09:48:06.737Z,94.37
2023-03-29T09:49:06.698Z,94.37
2023-03-29T09:50:09.900Z,94.06
2023-03-29T09:51:06.660Z,94.78
2023-03-29T09:52:06.643Z,94.89
2023-03-29T09:53:06.674Z,94.78
2023-03-29T09:54:06.629Z,95.50
2023-03-29T09:55:06.618Z,95.20
2023-03-29T09:56:06.610Z,95.30
2023-03-29T09:57:06.655Z,95.25
2023-03-29T09:58:06.580Z,95.40
2023-03-29T09:59:06.606Z,95.46
2023-03-29T10:00:06.560Z,95.56
2023-03-29T10:01:06.983Z,96.23
2023-03-29T10:02:06.543Z,95.71
2023-03-29T10:03:09.296Z,95.61
2023-03-29T10:04:06.609Z,95.81
2023-03-29T10:05:06.545Z,95.71
2023-03-29T10:06:06.507Z,96.12
2023-03-29T10:07:06.501Z,96.12
2023-03-29T10:08:06.487Z,96.12
2023-03-29T10:09:06.470Z,96.02
2023-03-29T10:10:06.491Z,96.02
2023-03-29T10:11:06.487Z,96.02
2023-03-29T10:12:06.454Z,96.02
2023-03-29T10:13:06.427Z,96.02
2023-03-29T10:14:06.487Z,95.77
2023-03-29T10:15:08.571Z,96.08
2023-03-29T10:16:06.418Z,95.77
2023-03-29T10:17:06.396Z,95.67
2023-03-29T10:18:06.443Z,96.08
2023-03-29T10:19:06.367Z,96.39
2023-03-29T10:20:07.533Z,96.39
2023-03-29T10:21:06.365Z,96.91
2023-03-29T10:22:06.333Z,97.01
2023-03-29T10:23:06.339Z,97.21
2023-03-29T10:24:06.311Z,97.52
2023-03-29T10:25:06.331Z,97.83
2023-03-29T10:26:06.298Z,98.14
2023-03-29T10:27:06.284Z,98.35
2023-03-29T10:28:06.271Z,98.66
2023-03-29T10:29:06.275Z,98.97
2023-03-29T10:30:06.259Z,99.17
2023-03-29T10:31:06.525Z,99.27
2023-03-29T10:32:06.366Z,99.27
2023-03-29T10:33:06.334Z,99.38
2023-03-29T10:34:06.227Z,99.69
2023-03-29T10:35:06.200Z,99.48
2023-03-29T10:36:06.238Z,99.27
2023-03-29T10:37:06.194Z,99.27
2023-03-29T10:38:06.168Z,99.17
2023-03-29T10:39:06.480Z,99.17
2023-03-29T10:40:06.159Z,98.97
2023-03-29T10:41:06.145Z,99.17
2023-03-29T10:42:06.148Z,99.23
2023-03-29T10:43:06.117Z,99.13
2023-03-29T10:44:06.121Z,99.02
2023-03-29T10:45:06.101Z,98.61
2023-03-29T10:46:06.105Z,98.50
2023-03-29T10:47:06.071Z,98.50
2023-03-29T10:48:06.178Z,98.61
2023-03-29T10:49:06.133Z,98.61
2023-03-29T10:50:06.057Z,98.50
2023-03-29T10:51:06.158Z,98.20
2023-03-29T10:52:06.022Z,98.30
2023-03-29T10:53:06.004Z,98.50
2023-03-29T10:54:06.023Z,98.92
2023-03-29T10:55:06.026Z,98.82
2023-03-29T10:56:05.980Z,98.71
2023-03-29T10:57:05.986Z,99.02
2023-03-29T10:58:05.963Z,99.23
2023-03-29T10:59:05.952Z,99.43
2023-03-29T11:00:05.946Z,99.54
2023-03-29T11:01:06.214Z,99.74
2023-03-29T11:02:05.961Z,99.74
2023-03-29T11:03:06.036Z,99.99
2023-03-29T11:04:06.004Z,99.99
2023-03-29T11:05:05.917Z,99.99
2023-03-29T11:06:05.889Z,99.99
2023-03-29T11:07:05.865Z,99.99
2023-03-29T11:08:05.866Z,99.99
2023-03-29T11:09:05.859Z,99.99
2023-03-29T11:10:05.853Z,99.99
2023-03-29T11:11:05.843Z,99.99
2023-03-29T11:12:15.516Z,99.99
2023-03-29T11:13:05.819Z,99.99
2023-03-29T11:14:05.800Z,99.99
2023-03-29T11:15:05.792Z,99.99
2023-03-29T11:16:05.805Z,99.99
2023-03-29T11:17:05.778Z,99.99
2023-03-29T11:18:05.829Z,99.99
2023-03-29T11:19:05.749Z,99.99
2023-03-29T11:20:05.741Z,99.99
2023-03-29T11:21:10.265Z,99.99
2023-03-29T11:22:05.718Z,99.99
2023-03-29T11:23:05.696Z,99.99
2023-03-29T11:24:05.727Z,99.99
2023-03-29T11:25:05.697Z,99.99
2023-03-29T11:26:05.665Z,99.99
2023-03-29T11:27:05.684Z,99.99
2023-03-29T11:28:05.653Z,99.99
2023-03-29T11:29:05.646Z,99.99
2023-03-29T11:30:05.672Z,99.99
2023-03-29T11:31:06.070Z,99.99
2023-03-29T11:32:05.603Z,99.99
2023-03-29T11:33:05.621Z,99.99
2023-03-29T11:34:05.591Z,99.99
2023-03-29T11:35:05.688Z,99.99
2023-03-29T11:36:05.616Z,99.99
2023-03-29T11:37:05.552Z,99.99
2023-03-29T11:38:05.554Z,99.99
2023-03-29T11:39:05.551Z,99.99
2023-03-29T11:40:05.519Z,99.99
2023-03-29T11:41:05.825Z,99.99
2023-03-29T11:42:05.502Z,99.99
2023-03-29T11:43:05.498Z,99.99
2023-03-29T11:44:05.509Z,99.99
2023-03-29T11:45:05.476Z,99.99
2023-03-29T11:46:05.526Z,99.99
2023-03-29T11:47:05.646Z,99.99
2023-03-29T11:48:05.537Z,99.99
2023-03-29T11:49:05.428Z,99.99
2023-03-29T11:50:05.439Z,99.99
2023-03-29T11:51:05.414Z,99.99
2023-03-29T11:52:05.397Z,99.99
2023-03-29T11:53:05.389Z,99.99
2023-03-29T11:54:05.441Z,99.99
2023-03-29T11:55:05.364Z,99.99
2023-03-29T11:56:05.393Z,99.99
2023-03-29T11:57:05.477Z,99.99
2023-03-29T11:58:05.329Z,99.99
2023-03-29T11:59:05.325Z,99.99
2023-03-29T12:00:05.412Z,99.99
2023-03-29T12:01:05.303Z,99.99
2023-03-29T12:02:05.370Z,99.99
2023-03-29T12:03:05.438Z,99.99
2023-03-29T12:04:05.357Z,99.99
2023-03-29T12:05:05.270Z,99.99
2023-03-29T12:06:05.266Z,99.99
2023-03-29T12:07:05.251Z,99.99
2023-03-29T12:08:05.273Z,99.99
2023-03-29T12:09:05.235Z,99.99
2023-03-29T12:10:05.231Z,99.99
2023-03-29T12:11:05.364Z,99.99
2023-03-29T12:12:05.201Z,99.99
2023-03-29T12:13:05.225Z,99.99
2023-03-29T12:14:05.178Z,99.99
2023-03-29T12:15:05.200Z,99.99
2023-03-29T12:16:05.177Z,99.99
2023-03-29T12:17:05.630Z,99.99
2023-03-29T12:18:05.220Z,99.99
2023-03-29T12:19:05.133Z,99.99
2023-03-29T12:20:05.112Z,99.99
2023-03-29T12:21:05.312Z,99.99
2023-03-29T12:22:05.088Z,99.99
2023-03-29T12:23:05.102Z,99.99
2023-03-29T12:24:05.088Z,99.99
2023-03-29T12:25:05.079Z,99.99
2023-03-29T12:26:05.068Z,99.99
2023-03-29T12:27:05.042Z,99.99
2023-03-29T12:28:05.072Z,99.99
2023-03-29T12:29:05.054Z,99.99
2023-03-29T12:30:05.030Z,99.99
2023-03-29T12:31:05.308Z,99.99
2023-03-29T12:32:05.010Z,99.99
2023-03-29T12:33:05.065Z,99.99
2023-03-29T12:34:04.973Z,99.99
2023-03-29T12:35:04.962Z,99.99
2023-03-29T12:36:04.976Z,99.99
2023-03-29T12:37:04.964Z,99.99
2023-03-29T12:38:04.932Z,99.99
2023-03-29T12:39:04.954Z,99.99
2023-03-29T12:40:04.934Z,99.99
2023-03-29T12:41:05.124Z,99.99
2023-03-29T12:42:04.898Z,99.99
2023-03-29T12:43:04.907Z,99.99
2023-03-29T12:44:04.882Z,99.99
2023-03-29T12:45:04.894Z,99.99
2023-03-29T12:46:05.149Z,99.99
2023-03-29T12:47:04.849Z,99.99
2023-03-29T12:48:04.889Z,99.99
2023-03-29T12:49:04.815Z,99.99
2023-03-29T12:50:04.852Z,99.99
2023-03-29T12:51:04.813Z,99.99
2023-03-29T12:52:04.788Z,99.99